sensor_id;sensor_type;location;lat;lon;timestamp;P1;durP1;ratioP1;P2;durP2;ratioP2
39778;SDS011;25454;49.878;8.618;2022-09-01T00:02:46;6.33;;;3.00;;
39778;SDS011;25454;49.878;8.618;2022-09-01T00:07:47;5.57;;;3.07;;
39778;SDS011;25454;49.878;8.618;2022-09-01T00:12:51;3.33;;;3.03;;
39778;SDS011;25454;49.878;8.618;2022-09-01T00:17:52;4.53;;;3.00;;
39778;SDS011;25454;49.878;8.618;2022-09-01T00:22:53;3.20;;;2.90;;
39778;SDS011;25454;49.878;8.618;2022-09-01T00:27:54;2.80;;;2.60;;
39778;SDS011;25454;49.878;8.618;2022-09-01T00:32:59;4.50;;;2.80;;
39778;SDS011;25454;49.878;8.618;2022-09-01T00:37:59;4.47;;;2.77;;
39778;SDS011;25454;49.878;8.618;2022-09-01T00:43:00;2.83;;;2.50;;
39778;SDS011;25454;49.878;8.618;2022-09-01T00:48:09;2.70;;;2.50;;
39778;SDS011;25454;49.878;8.618;2022-09-01T00:53:10;6.00;;;2.90;;
39778;SDS011;25454;49.878;8.618;2022-09-01T00:58:11;2.70;;;2.50;;
39778;SDS011;25454;49.878;8.618;2022-09-01T01:03:12;3.23;;;2.60;;
39778;SDS011;25454;49.878;8.618;2022-09-01T01:08:13;4.37;;;2.67;;
39778;SDS011;25454;49.878;8.618;2022-09-01T01:13:18;4.40;;;2.80;;
39778;SDS011;25454;49.878;8.618;2022-09-01T01:18:19;4.67;;;2.57;;
39778;SDS011;25454;49.878;8.618;2022-09-01T01:23:23;3.40;;;2.63;;
39778;SDS011;25454;49.878;8.618;2022-09-01T01:28:54;4.03;;;2.50;;
39778;SDS011;25454;49.878;8.618;2022-09-01T01:33:55;3.20;;;2.60;;
39778;SDS011;25454;49.878;8.618;2022-09-01T01:38:56;2.77;;;2.50;;
39778;SDS011;25454;49.878;8.618;2022-09-01T01:44:01;2.73;;;2.53;;
39778;SDS011;25454;49.878;8.618;2022-09-01T01:49:03;3.37;;;2.57;;
39778;SDS011;25454;49.878;8.618;2022-09-01T01:54:04;2.97;;;2.77;;
39778;SDS011;25454;49.878;8.618;2022-09-01T01:59:06;3.27;;;2.60;;
39778;SDS011;25454;49.878;8.618;2022-09-01T02:04:10;4.00;;;2.50;;
39778;SDS011;25454;49.878;8.618;2022-09-01T02:09:14;7.37;;;3.00;;
39778;SDS011;25454;49.878;8.618;2022-09-01T02:14:17;4.00;;;2.60;;
39778;SDS011;25454;49.878;8.618;2022-09-01T02:19:19;4.77;;;2.70;;
39778;SDS011;25454;49.878;8.618;2022-09-01T02:24:20;5.50;;;2.60;;
39778;SDS011;25454;49.878;8.618;2022-09-01T02:29:22;2.50;;;2.20;;
39778;SDS011;25454;49.878;8.618;2022-09-01T02:34:25;4.00;;;2.30;;
39778;SDS011;25454;49.878;8.618;2022-09-01T02:39:28;2.57;;;2.33;;
39778;SDS011;25454;49.878;8.618;2022-09-01T02:44:33;5.20;;;2.60;;
39778;SDS011;25454;49.878;8.618;2022-09-01T02:49:34;3.17;;;2.27;;
39778;SDS011;25454;49.878;8.618;2022-09-01T02:54:35;2.60;;;2.40;;
39778;SDS011;25454;49.878;8.618;2022-09-01T02:59:35;4.17;;;2.50;;
39778;SDS011;25454;49.878;8.618;2022-09-01T03:04:37;3.43;;;2.30;;
39778;SDS011;25454;49.878;8.618;2022-09-01T03:09:37;3.87;;;2.37;;
39778;SDS011;25454;49.878;8.618;2022-09-01T03:14:40;3.73;;;2.70;;
39778;SDS011;25454;49.878;8.618;2022-09-01T03:19:41;3.47;;;2.43;;
39778;SDS011;25454;49.878;8.618;2022-09-01T03:24:43;5.20;;;2.47;;
39778;SDS011;25454;49.878;8.618;2022-09-01T03:29:43;7.00;;;2.40;;
39778;SDS011;25454;49.878;8.618;2022-09-01T03:34:47;3.63;;;2.40;;
39778;SDS011;25454;49.878;8.618;2022-09-01T03:39:47;4.87;;;2.20;;
39778;SDS011;25454;49.878;8.618;2022-09-01T03:44:48;2.73;;;2.50;;
39778;SDS011;25454;49.878;8.618;2022-09-01T03:49:55;4.27;;;2.43;;
39778;SDS011;25454;49.878;8.618;2022-09-01T03:54:56;2.87;;;2.37;;
39778;SDS011;25454;49.878;8.618;2022-09-01T03:59:58;4.13;;;2.40;;
39778;SDS011;25454;49.878;8.618;2022-09-01T04:04:59;3.30;;;2.53;;
39778;SDS011;25454;49.878;8.618;2022-09-01T04:10:00;3.17;;;2.70;;
39778;SDS011;25454;49.878;8.618;2022-09-01T04:15:00;4.60;;;2.53;;
39778;SDS011;25454;49.878;8.618;2022-09-01T04:20:01;4.60;;;2.50;;
39778;SDS011;25454;49.878;8.618;2022-09-01T04:25:08;4.47;;;2.70;;
39778;SDS011;25454;49.878;8.618;2022-09-01T04:30:09;3.90;;;3.13;;
39778;SDS011;25454;49.878;8.618;2022-09-01T04:35:10;4.13;;;2.83;;
39778;SDS011;25454;49.878;8.618;2022-09-01T04:40:15;3.33;;;2.70;;
39778;SDS011;25454;49.878;8.618;2022-09-01T04:45:16;5.47;;;2.57;;
39778;SDS011;25454;49.878;8.618;2022-09-01T04:50:19;3.57;;;2.30;;
39778;SDS011;25454;49.878;8.618;2022-09-01T04:55:21;4.13;;;2.50;;
39778;SDS011;25454;49.878;8.618;2022-09-01T05:00:24;5.80;;;2.40;;
39778;SDS011;25454;49.878;8.618;2022-09-01T05:05:38;2.53;;;2.30;;
39778;SDS011;25454;49.878;8.618;2022-09-01T05:10:43;4.03;;;2.10;;
39778;SDS011;25454;49.878;8.618;2022-09-01T05:15:46;4.03;;;2.67;;
39778;SDS011;25454;49.878;8.618;2022-09-01T05:20:46;5.53;;;2.70;;
39778;SDS011;25454;49.878;8.618;2022-09-01T05:25:48;9.57;;;3.57;;
39778;SDS011;25454;49.878;8.618;2022-09-01T05:30:50;6.73;;;2.30;;
39778;SDS011;25454;49.878;8.618;2022-09-01T05:35:54;5.87;;;2.30;;
39778;SDS011;25454;49.878;8.618;2022-09-01T05:40:57;3.10;;;2.50;;
39778;SDS011;25454;49.878;8.618;2022-09-01T05:46:06;4.77;;;3.10;;
39778;SDS011;25454;49.878;8.618;2022-09-01T05:51:08;4.00;;;2.20;;
39778;SDS011;25454;49.878;8.618;2022-09-01T05:56:10;4.13;;;2.30;;
39778;SDS011;25454;49.878;8.618;2022-09-01T06:01:18;3.53;;;2.10;;
39778;SDS011;25454;49.878;8.618;2022-09-01T06:06:24;5.40;;;2.60;;
39778;SDS011;25454;49.878;8.618;2022-09-01T06:11:45;2.73;;;2.20;;
39778;SDS011;25454;49.878;8.618;2022-09-01T06:16:46;3.97;;;2.07;;
39778;SDS011;25454;49.878;8.618;2022-09-01T06:21:47;5.47;;;2.53;;
39778;SDS011;25454;49.878;8.618;2022-09-01T06:26:47;5.13;;;2.63;;
39778;SDS011;25454;49.878;8.618;2022-09-01T06:31:48;3.43;;;2.20;;
39778;SDS011;25454;49.878;8.618;2022-09-01T06:36:51;3.93;;;2.57;;
39778;SDS011;25454;49.878;8.618;2022-09-01T06:41:52;6.50;;;2.67;;
39778;SDS011;25454;49.878;8.618;2022-09-01T06:46:53;4.90;;;2.33;;
39778;SDS011;25454;49.878;8.618;2022-09-01T06:51:54;3.73;;;2.17;;
39778;SDS011;25454;49.878;8.618;2022-09-01T06:56:54;6.67;;;2.20;;
39778;SDS011;25454;49.878;8.618;2022-09-01T07:01:57;4.13;;;1.80;;
39778;SDS011;25454;49.878;8.618;2022-09-01T07:07:00;3.63;;;2.13;;
39778;SDS011;25454;49.878;8.618;2022-09-01T07:12:07;4.83;;;2.20;;
39778;SDS011;25454;49.878;8.618;2022-09-01T07:17:08;6.47;;;1.70;;
39778;SDS011;25454;49.878;8.618;2022-09-01T07:22:12;4.43;;;1.80;;
39778;SDS011;25454;49.878;8.618;2022-09-01T07:27:16;2.27;;;1.70;;
39778;SDS011;25454;49.878;8.618;2022-09-01T07:32:18;3.20;;;1.80;;
39778;SDS011;25454;49.878;8.618;2022-09-01T07:37:19;2.67;;;1.83;;
39778;SDS011;25454;49.878;8.618;2022-09-01T07:42:21;3.90;;;1.83;;
39778;SDS011;25454;49.878;8.618;2022-09-01T07:47:23;3.47;;;2.23;;
39778;SDS011;25454;49.878;8.618;2022-09-01T07:52:23;3.50;;;1.93;;
39778;SDS011;25454;49.878;8.618;2022-09-01T07:57:24;4.43;;;2.20;;
39778;SDS011;25454;49.878;8.618;2022-09-01T08:02:25;9.63;;;2.60;;
39778;SDS011;25454;49.878;8.618;2022-09-01T08:07:26;5.10;;;2.10;;
39778;SDS011;25454;49.878;8.618;2022-09-01T08:12:27;2.53;;;2.10;;
39778;SDS011;25454;49.878;8.618;2022-09-01T08:17:28;6.17;;;1.90;;
39778;SDS011;25454;49.878;8.618;2022-09-01T08:22:28;6.27;;;2.03;;
39778;SDS011;25454;49.878;8.618;2022-09-01T08:27:31;3.93;;;2.00;;
39778;SDS011;25454;49.878;8.618;2022-09-01T08:32:35;6.27;;;1.80;;
39778;SDS011;25454;49.878;8.618;2022-09-01T08:37:37;3.87;;;2.43;;
39778;SDS011;25454;49.878;8.618;2022-09-01T08:47:56;4.93;;;2.10;;
39778;SDS011;25454;49.878;8.618;2022-09-01T08:53:04;4.33;;;2.00;;
39778;SDS011;25454;49.878;8.618;2022-09-01T08:58:32;5.03;;;2.47;;
39778;SDS011;25454;49.878;8.618;2022-09-01T09:03:41;4.87;;;2.00;;
39778;SDS011;25454;49.878;8.618;2022-09-01T09:09:09;4.37;;;2.50;;
39778;SDS011;25454;49.878;8.618;2022-09-01T09:14:14;3.43;;;2.17;;
39778;SDS011;25454;49.878;8.618;2022-09-01T09:19:31;3.37;;;2.03;;
39778;SDS011;25454;49.878;8.618;2022-09-01T09:24:42;2.70;;;2.10;;
39778;SDS011;25454;49.878;8.618;2022-09-01T09:29:51;7.07;;;2.10;;
39778;SDS011;25454;49.878;8.618;2022-09-01T09:34:53;3.17;;;2.17;;
39778;SDS011;25454;49.878;8.618;2022-09-01T09:40:14;2.80;;;1.90;;
39778;SDS011;25454;49.878;8.618;2022-09-01T09:50:46;5.97;;;2.10;;
39778;SDS011;25454;49.878;8.618;2022-09-01T10:06:28;8.17;;;2.53;;
39778;SDS011;25454;49.878;8.618;2022-09-01T10:16:31;5.17;;;2.20;;
39778;SDS011;25454;49.878;8.618;2022-09-01T10:21:37;3.63;;;2.00;;
39778;SDS011;25454;49.878;8.618;2022-09-01T10:26:41;4.93;;;2.53;;
39778;SDS011;25454;49.878;8.618;2022-09-01T10:31:46;4.80;;;2.30;;
39778;SDS011;25454;49.878;8.618;2022-09-01T10:36:53;3.07;;;2.07;;
39778;SDS011;25454;49.878;8.618;2022-09-01T10:41:55;3.70;;;2.27;;
39778;SDS011;25454;49.878;8.618;2022-09-01T10:47:25;3.90;;;2.30;;
39778;SDS011;25454;49.878;8.618;2022-09-01T11:08:20;2.40;;;1.73;;
39778;SDS011;25454;49.878;8.618;2022-09-01T11:18:48;2.80;;;1.80;;
39778;SDS011;25454;49.878;8.618;2022-09-01T11:29:49;2.47;;;1.80;;
39778;SDS011;25454;49.878;8.618;2022-09-01T11:34:53;3.70;;;2.00;;
39778;SDS011;25454;49.878;8.618;2022-09-01T11:40:00;3.57;;;2.00;;
39778;SDS011;25454;49.878;8.618;2022-09-01T11:45:06;2.90;;;2.10;;
39778;SDS011;25454;49.878;8.618;2022-09-01T12:00:40;3.87;;;2.00;;
39778;SDS011;25454;49.878;8.618;2022-09-01T12:05:41;2.33;;;1.70;;
39778;SDS011;25454;49.878;8.618;2022-09-01T12:10:42;7.33;;;1.93;;
39778;SDS011;25454;49.878;8.618;2022-09-01T12:15:51;2.53;;;2.00;;
39778;SDS011;25454;49.878;8.618;2022-09-01T12:21:04;2.37;;;1.70;;
39778;SDS011;25454;49.878;8.618;2022-09-01T12:26:08;3.67;;;1.80;;
39778;SDS011;25454;49.878;8.618;2022-09-01T12:31:18;1.70;;;1.60;;
39778;SDS011;25454;49.878;8.618;2022-09-01T12:36:29;3.50;;;1.60;;
39778;SDS011;25454;49.878;8.618;2022-09-01T12:46:41;3.17;;;1.97;;
39778;SDS011;25454;49.878;8.618;2022-09-01T12:51:42;1.77;;;1.67;;
39778;SDS011;25454;49.878;8.618;2022-09-01T12:56:47;2.33;;;1.83;;
39778;SDS011;25454;49.878;8.618;2022-09-01T13:01:50;1.97;;;1.73;;
39778;SDS011;25454;49.878;8.618;2022-09-01T13:06:51;3.07;;;1.70;;
39778;SDS011;25454;49.878;8.618;2022-09-01T13:12:07;2.70;;;2.10;;
39778;SDS011;25454;49.878;8.618;2022-09-01T13:17:16;2.43;;;2.00;;
39778;SDS011;25454;49.878;8.618;2022-09-01T13:22:18;4.03;;;1.97;;
39778;SDS011;25454;49.878;8.618;2022-09-01T13:27:18;2.43;;;1.57;;
39778;SDS011;25454;49.878;8.618;2022-09-01T13:32:20;2.87;;;1.63;;
39778;SDS011;25454;49.878;8.618;2022-09-01T13:37:22;2.23;;;1.67;;
39778;SDS011;25454;49.878;8.618;2022-09-01T13:42:26;3.20;;;1.67;;
39778;SDS011;25454;49.878;8.618;2022-09-01T13:47:26;5.17;;;2.00;;
39778;SDS011;25454;49.878;8.618;2022-09-01T13:52:27;1.97;;;1.80;;
39778;SDS011;25454;49.878;8.618;2022-09-01T13:57:28;4.23;;;2.20;;
39778;SDS011;25454;49.878;8.618;2022-09-01T14:02:29;4.00;;;1.63;;
39778;SDS011;25454;49.878;8.618;2022-09-01T14:07:30;5.77;;;1.83;;
39778;SDS011;25454;49.878;8.618;2022-09-01T14:12:31;3.73;;;1.80;;
39778;SDS011;25454;49.878;8.618;2022-09-01T14:17:32;2.57;;;1.73;;
39778;SDS011;25454;49.878;8.618;2022-09-01T14:22:34;5.93;;;2.10;;
39778;SDS011;25454;49.878;8.618;2022-09-01T14:27:34;4.30;;;1.93;;
39778;SDS011;25454;49.878;8.618;2022-09-01T14:32:35;4.00;;;1.67;;
39778;SDS011;25454;49.878;8.618;2022-09-01T14:37:42;3.07;;;1.70;;
39778;SDS011;25454;49.878;8.618;2022-09-01T14:42:45;2.10;;;1.90;;
39778;SDS011;25454;49.878;8.618;2022-09-01T14:47:48;2.90;;;1.70;;
39778;SDS011;25454;49.878;8.618;2022-09-01T14:52:53;3.00;;;2.00;;
39778;SDS011;25454;49.878;8.618;2022-09-01T14:57:55;3.80;;;1.70;;
39778;SDS011;25454;49.878;8.618;2022-09-01T15:02:57;1.73;;;1.63;;
39778;SDS011;25454;49.878;8.618;2022-09-01T15:07:57;2.50;;;1.90;;
39778;SDS011;25454;49.878;8.618;2022-09-01T15:12:59;3.03;;;1.80;;
39778;SDS011;25454;49.878;8.618;2022-09-01T15:18:00;1.83;;;1.73;;
39778;SDS011;25454;49.878;8.618;2022-09-01T15:23:01;1.80;;;1.60;;
39778;SDS011;25454;49.878;8.618;2022-09-01T15:28:02;1.70;;;1.60;;
39778;SDS011;25454;49.878;8.618;2022-09-01T15:33:04;1.90;;;1.70;;
39778;SDS011;25454;49.878;8.618;2022-09-01T15:38:06;2.60;;;1.63;;
39778;SDS011;25454;49.878;8.618;2022-09-01T15:43:07;2.20;;;2.00;;
39778;SDS011;25454;49.878;8.618;2022-09-01T15:48:08;4.47;;;1.73;;
39778;SDS011;25454;49.878;8.618;2022-09-01T15:53:08;3.67;;;1.77;;
39778;SDS011;25454;49.878;8.618;2022-09-01T15:58:13;2.53;;;1.83;;
39778;SDS011;25454;49.878;8.618;2022-09-01T16:03:15;2.80;;;1.80;;
39778;SDS011;25454;49.878;8.618;2022-09-01T16:08:16;3.60;;;1.60;;
39778;SDS011;25454;49.878;8.618;2022-09-01T16:13:18;4.97;;;1.70;;
39778;SDS011;25454;49.878;8.618;2022-09-01T16:18:28;2.67;;;1.50;;
39778;SDS011;25454;49.878;8.618;2022-09-01T16:23:44;2.20;;;1.80;;
39778;SDS011;25454;49.878;8.618;2022-09-01T16:28:51;3.13;;;1.80;;
39778;SDS011;25454;49.878;8.618;2022-09-01T16:33:56;4.20;;;1.70;;
39778;SDS011;25454;49.878;8.618;2022-09-01T16:44:18;3.37;;;2.13;;
39778;SDS011;25454;49.878;8.618;2022-09-01T16:59:59;3.20;;;2.07;;
39778;SDS011;25454;49.878;8.618;2022-09-01T17:05:15;2.33;;;1.83;;
39778;SDS011;25454;49.878;8.618;2022-09-01T17:10:30;3.67;;;1.93;;
39778;SDS011;25454;49.878;8.618;2022-09-01T17:15:40;1.60;;;1.50;;
39778;SDS011;25454;49.878;8.618;2022-09-01T17:20:44;2.90;;;1.87;;
39778;SDS011;25454;49.878;8.618;2022-09-01T17:25:50;3.53;;;1.73;;
39778;SDS011;25454;49.878;8.618;2022-09-01T17:36:14;3.93;;;1.90;;
39778;SDS011;25454;49.878;8.618;2022-09-01T18:07:54;5.43;;;2.30;;
39778;SDS011;25454;49.878;8.618;2022-09-01T18:13:19;4.17;;;1.70;;
39778;SDS011;25454;49.878;8.618;2022-09-01T18:18:32;5.77;;;1.90;;
39778;SDS011;25454;49.878;8.618;2022-09-01T18:23:37;6.03;;;2.03;;
39778;SDS011;25454;49.878;8.618;2022-09-01T18:28:39;4.13;;;2.30;;
39778;SDS011;25454;49.878;8.618;2022-09-01T18:50:12;4.33;;;2.50;;
39778;SDS011;25454;49.878;8.618;2022-09-01T18:55:30;4.50;;;2.40;;
39778;SDS011;25454;49.878;8.618;2022-09-01T19:00:46;5.40;;;2.73;;
39778;SDS011;25454;49.878;8.618;2022-09-01T19:06:00;3.90;;;2.93;;
39778;SDS011;25454;49.878;8.618;2022-09-01T19:11:40;5.60;;;2.73;;
39778;SDS011;25454;49.878;8.618;2022-09-01T19:21:59;6.93;;;3.00;;
39778;SDS011;25454;49.878;8.618;2022-09-01T19:27:10;6.20;;;3.23;;
39778;SDS011;25454;49.878;8.618;2022-09-01T19:32:14;8.97;;;4.23;;
39778;SDS011;25454;49.878;8.618;2022-09-01T19:37:17;6.87;;;3.50;;
39778;SDS011;25454;49.878;8.618;2022-09-01T19:52:54;8.83;;;2.97;;
39778;SDS011;25454;49.878;8.618;2022-09-01T19:58:07;5.43;;;3.00;;
39778;SDS011;25454;49.878;8.618;2022-09-01T20:14:05;4.60;;;2.70;;
39778;SDS011;25454;49.878;8.618;2022-09-01T20:19:43;4.83;;;2.40;;
39778;SDS011;25454;49.878;8.618;2022-09-01T20:24:56;7.00;;;2.70;;
39778;SDS011;25454;49.878;8.618;2022-09-01T20:30:08;4.93;;;2.77;;
39778;SDS011;25454;49.878;8.618;2022-09-01T20:35:28;5.77;;;2.57;;
39778;SDS011;25454;49.878;8.618;2022-09-01T20:40:36;4.33;;;2.70;;
39778;SDS011;25454;49.878;8.618;2022-09-01T20:45:39;3.00;;;2.50;;
39778;SDS011;25454;49.878;8.618;2022-09-01T21:00:57;2.30;;;2.10;;
39778;SDS011;25454;49.878;8.618;2022-09-01T21:17:33;4.40;;;2.47;;
39778;SDS011;25454;49.878;8.618;2022-09-01T21:22:56;2.10;;;1.90;;
39778;SDS011;25454;49.878;8.618;2022-09-01T21:27:57;6.13;;;2.20;;
39778;SDS011;25454;49.878;8.618;2022-09-01T21:32:59;6.97;;;2.43;;
39778;SDS011;25454;49.878;8.618;2022-09-01T21:38:00;3.80;;;2.70;;
39778;SDS011;25454;49.878;8.618;2022-09-01T21:43:02;7.60;;;2.60;;
39778;SDS011;25454;49.878;8.618;2022-09-01T21:48:11;6.07;;;2.63;;
39778;SDS011;25454;49.878;8.618;2022-09-01T21:53:12;4.70;;;2.63;;
39778;SDS011;25454;49.878;8.618;2022-09-01T21:58:13;4.33;;;2.77;;
39778;SDS011;25454;49.878;8.618;2022-09-01T22:03:13;4.43;;;2.70;;
39778;SDS011;25454;49.878;8.618;2022-09-01T22:08:14;3.67;;;2.50;;
39778;SDS011;25454;49.878;8.618;2022-09-01T22:13:16;3.77;;;2.30;;
39778;SDS011;25454;49.878;8.618;2022-09-01T22:18:19;3.73;;;2.23;;
39778;SDS011;25454;49.878;8.618;2022-09-01T22:23:20;2.47;;;2.27;;
39778;SDS011;25454;49.878;8.618;2022-09-01T22:28:20;4.63;;;2.27;;
39778;SDS011;25454;49.878;8.618;2022-09-01T22:33:21;4.67;;;2.50;;
39778;SDS011;25454;49.878;8.618;2022-09-01T22:38:22;3.53;;;2.10;;
39778;SDS011;25454;49.878;8.618;2022-09-01T22:43:23;3.00;;;1.93;;
39778;SDS011;25454;49.878;8.618;2022-09-01T22:48:26;2.77;;;2.30;;
39778;SDS011;25454;49.878;8.618;2022-09-01T22:53:27;2.60;;;2.20;;
39778;SDS011;25454;49.878;8.618;2022-09-01T22:58:28;4.40;;;2.47;;
39778;SDS011;25454;49.878;8.618;2022-09-01T23:03:29;2.00;;;1.90;;
39778;SDS011;25454;49.878;8.618;2022-09-01T23:08:29;4.80;;;2.20;;
39778;SDS011;25454;49.878;8.618;2022-09-01T23:13:30;5.50;;;2.20;;
39778;SDS011;25454;49.878;8.618;2022-09-01T23:18:32;3.40;;;2.00;;
39778;SDS011;25454;49.878;8.618;2022-09-01T23:23:34;3.77;;;2.20;;
39778;SDS011;25454;49.878;8.618;2022-09-01T23:28:35;5.13;;;2.03;;
39778;SDS011;25454;49.878;8.618;2022-09-01T23:33:37;2.53;;;2.20;;
39778;SDS011;25454;49.878;8.618;2022-09-01T23:38:38;4.07;;;2.37;;
39778;SDS011;25454;49.878;8.618;2022-09-01T23:43:40;3.37;;;2.00;;
39778;SDS011;25454;49.878;8.618;2022-09-01T23:48:41;2.10;;;1.90;;
39778;SDS011;25454;49.878;8.618;2022-09-01T23:53:42;2.87;;;2.10;;
39778;SDS011;25454;49.878;8.618;2022-09-01T23:58:43;2.37;;;2.07;;
